Time;durP1;ratioP1;P1;durP2;ratioP2;P2;SDS_P1;SDS_P2;PMS_P1;PMS_P2;Temp;Humidity;BMP_temperature;BMP_pressure;BME280_temperature;BME280_humidity;BME280_pressure;Samples;Min_cycle;Max_cycle;Signal;HPM_P1;HPM_P2
2022/03/31 00:01:42;;;;;;;19.08;8.80;;;;;;;5.55;100.00;94901.28;4996008;28;20034;-69
2022/03/31 00:04:07;;;;;;;16.65;8.93;;;;;;;5.44;100.00;94901.44;5000534;28;20042;-70
2022/03/31 00:06:33;;;;;;;18.92;9.65;;;;;;;5.25;100.00;94896.53;5000146;28;20400;-69
2022/03/31 00:08:58;;;;;;;19.20;8.55;;;;;;;5.12;100.00;94896.16;4998690;28;20670;-69
2022/03/31 00:11:24;;;;;;;19.55;9.70;;;;;;;5.17;100.00;94897.00;5000673;28;20068;-71
2022/03/31 00:13:49;;;;;;;17.80;9.15;;;;;;;5.07;100.00;94896.13;5001074;28;20070;-69
2022/03/31 00:16:15;;;;;;;15.52;8.90;;;;;;;5.24;100.00;94897.59;4999088;28;20037;-69
2022/03/31 00:18:40;;;;;;;13.75;7.45;;;;;;;5.22;100.00;94885.66;4998698;28;20042;-69
2022/03/31 00:21:06;;;;;;;16.10;8.73;;;;;;;5.34;100.00;94898.72;4998436;28;20551;-70
2022/03/31 00:23:36;;;;;;;17.00;8.90;;;;;;;5.40;100.00;94893.22;5000794;28;20765;-69
2022/03/31 00:26:03;;;;;;;16.63;9.02;;;;;;;5.19;100.00;94894.09;4996926;28;20385;-70
2022/03/31 00:28:28;;;;;;;16.23;8.90;;;;;;;5.24;100.00;94892.28;4997970;28;20205;-69
2022/03/31 00:30:54;;;;;;;15.07;8.15;;;;;;;5.18;100.00;94887.19;4996270;28;20046;-69
2022/03/31 00:33:19;;;;;;;17.08;8.68;;;;;;;5.13;100.00;94887.94;4998698;28;20034;-70
2022/03/31 00:35:45;;;;;;;15.82;8.38;;;;;;;5.13;100.00;94884.50;4998978;28;20034;-69
2022/03/31 00:38:11;;;;;;;20.08;9.00;;;;;;;5.10;100.00;94883.16;4994844;28;20045;-70
2022/03/31 00:40:36;;;;;;;17.63;9.25;;;;;;;5.15;100.00;94891.16;4985122;28;20042;-70
2022/03/31 00:43:02;;;;;;;16.42;8.73;;;;;;;5.19;100.00;94873.69;4994366;28;20378;-69
2022/03/31 00:45:46;;;;;;;17.98;8.95;;;;;;;5.07;100.00;94883.66;4999208;28;20157;-69
2022/03/31 00:48:15;;;;;;;14.70;8.20;;;;;;;5.01;100.00;94882.00;4998770;28;20437;-69
2022/03/31 00:50:42;;;;;;;18.83;8.27;;;;;;;4.97;100.00;94876.41;5000548;28;20145;-70
2022/03/31 00:53:08;;;;;;;15.18;9.20;;;;;;;5.01;100.00;94874.84;4995051;28;20068;-69
2022/03/31 00:55:35;;;;;;;17.42;9.20;;;;;;;4.99;100.00;94869.00;4998456;28;20045;-69
2022/03/31 00:58:01;;;;;;;16.10;8.77;;;;;;;4.97;100.00;94875.59;4997577;28;20037;-69
2022/03/31 01:00:31;;;;;;;18.00;9.10;;;;;;;4.88;100.00;94882.41;4998208;28;20037;-70
2022/03/31 01:02:56;;;;;;;18.27;8.70;;;;;;;5.06;100.00;94868.81;4998654;28;20383;-69
2022/03/31 01:05:22;;;;;;;15.13;8.35;;;;;;;4.96;100.00;94868.69;4998470;28;20037;-70
2022/03/31 01:07:47;;;;;;;17.95;9.07;;;;;;;4.67;100.00;94876.09;4997819;28;20034;-69
2022/03/31 01:10:14;;;;;;;17.65;10.13;;;;;;;4.77;100.00;94867.47;4995506;28;20444;-70
2022/03/31 01:12:40;;;;;;;17.88;8.90;;;;;;;4.55;100.00;94870.16;4996627;28;20038;-69
2022/03/31 01:15:10;;;;;;;14.95;8.75;;;;;;;4.31;100.00;94865.13;4997362;28;20046;-70
2022/03/31 01:17:38;;;;;;;16.50;8.48;;;;;;;4.16;100.00;94863.09;4999685;28;20037;-69
2022/03/31 01:20:06;;;;;;;19.52;8.57;;;;;;;4.31;100.00;94864.34;4997545;28;20042;-69
2022/03/31 01:22:32;;;;;;;15.45;8.32;;;;;;;4.38;100.00;94859.66;4999038;28;20778;-70
2022/03/31 01:24:59;;;;;;;16.80;8.88;;;;;;;4.44;100.00;94842.78;4998877;28;20056;-70
2022/03/31 01:27:25;;;;;;;14.57;8.30;;;;;;;4.54;100.00;94845.53;4997933;28;20042;-70
2022/03/31 01:29:52;;;;;;;17.45;8.93;;;;;;;4.47;100.00;94847.56;4998827;28;20362;-70
2022/03/31 01:32:18;;;;;;;18.80;8.32;;;;;;;4.35;100.00;94846.88;4998256;28;20081;-70
2022/03/31 01:34:44;;;;;;;16.20;8.43;;;;;;;4.21;100.00;94843.03;4999212;28;20121;-69
2022/03/31 01:37:10;;;;;;;19.58;8.85;;;;;;;4.18;100.00;94842.47;4979871;28;20038;-70
2022/03/31 01:39:35;;;;;;;16.58;9.13;;;;;;;4.15;100.00;94845.63;4995470;28;20042;-70
2022/03/31 01:42:01;;;;;;;17.20;9.50;;;;;;;4.01;100.00;94833.00;4997924;28;20041;-69
2022/03/31 01:44:27;;;;;;;20.80;8.88;;;;;;;3.84;100.00;94835.72;4996705;28;20041;-70
2022/03/31 01:46:53;;;;;;;16.90;9.55;;;;;;;3.74;100.00;94825.81;4997158;28;20041;-69
2022/03/31 01:49:19;;;;;;;17.10;9.18;;;;;;;3.63;100.00;94824.84;4994958;28;20060;-70
2022/03/31 01:51:44;;;;;;;17.90;8.98;;;;;;;3.90;100.00;94821.50;4983606;28;20120;-69
2022/03/31 01:54:10;;;;;;;18.25;9.05;;;;;;;4.11;100.00;94823.31;4998715;28;20113;-69
2022/03/31 01:56:40;;;;;;;18.08;8.65;;;;;;;4.10;100.00;94813.78;4996156;28;20046;-70
2022/03/31 01:59:05;;;;;;;19.65;8.55;;;;;;;4.25;100.00;94828.25;4996114;28;20046;-69
2022/03/31 02:01:31;;;;;;;16.60;8.27;;;;;;;4.08;100.00;94815.88;4997106;28;20470;-69
2022/03/31 02:03:56;;;;;;;18.02;8.82;;;;;;;3.98;100.00;94818.44;4998823;28;20354;-70
2022/03/31 02:06:22;;;;;;;15.23;8.80;;;;;;;3.95;100.00;94802.22;4998340;28;20113;-71
2022/03/31 02:08:47;;;;;;;15.52;8.43;;;;;;;4.01;100.00;94809.97;4987422;28;20085;-69
2022/03/31 02:11:13;;;;;;;17.80;9.50;;;;;;;4.14;100.00;94817.56;4996691;28;20042;-70
2022/03/31 02:13:38;;;;;;;19.10;8.60;;;;;;;4.18;100.00;94821.28;4983331;28;20042;-70
2022/03/31 02:16:04;;;;;;;20.08;9.88;;;;;;;4.31;100.00;94812.16;4998038;28;20544;-69
2022/03/31 02:18:30;;;;;;;19.42;9.80;;;;;;;4.16;100.00;94814.66;4993407;28;20030;-69
2022/03/31 02:20:55;;;;;;;16.60;8.85;;;;;;;4.06;100.00;94818.00;4998693;28;20355;-69
2022/03/31 02:23:20;;;;;;;16.73;9.57;;;;;;;3.91;100.00;94808.03;4996517;28;20049;-70
2022/03/31 02:25:46;;;;;;;16.27;9.13;;;;;;;3.80;100.00;94810.78;5002633;28;20084;-69
2022/03/31 02:28:12;;;;;;;16.42;9.38;;;;;;;3.49;100.00;94802.44;4999824;28;20057;-70
2022/03/31 02:30:38;;;;;;;15.60;8.75;;;;;;;3.39;100.00;94799.66;5000289;28;20511;-69
2022/03/31 02:33:04;;;;;;;16.15;8.88;;;;;;;3.30;100.00;94795.84;4999086;28;20030;-69
2022/03/31 02:35:30;;;;;;;16.77;9.35;;;;;;;3.36;100.00;94797.53;5002923;28;20121;-69
2022/03/31 02:37:57;;;;;;;18.00;9.27;;;;;;;3.53;100.00;94784.25;5000509;28;20033;-69
2022/03/31 02:40:22;;;;;;;15.82;8.65;;;;;;;3.63;100.00;94777.22;4999916;28;20473;-70
2022/03/31 02:42:48;;;;;;;16.05;9.40;;;;;;;3.71;100.00;94786.59;4998151;28;20034;-70
2022/03/31 02:45:14;;;;;;;18.38;9.75;;;;;;;3.87;100.00;94779.63;4998682;28;20048;-69
2022/03/31 02:47:40;;;;;;;19.17;9.68;;;;;;;3.96;100.00;94782.66;5000001;28;20049;-69
2022/03/31 02:50:07;;;;;;;19.25;9.75;;;;;;;3.92;100.00;94769.91;4982145;28;20029;-69
2022/03/31 02:55:34;;;;;;;17.77;8.45;;;;;;;3.69;100.00;94764.88;4900877;29;20052;-69
2022/03/31 02:58:02;;;;;;;19.08;9.60;;;;;;;3.60;100.00;94758.44;4981104;28;20037;-69
2022/03/31 03:00:34;;;;;;;18.90;9.98;;;;;;;3.55;100.00;94756.50;4972580;28;20042;-69
2022/03/31 03:03:03;;;;;;;16.98;9.38;;;;;;;3.45;100.00;94756.38;5001454;28;20045;-69
2022/03/31 03:05:29;;;;;;;19.60;9.32;;;;;;;3.62;100.00;94751.03;5000808;28;20385;-69
2022/03/31 03:07:54;;;;;;;17.17;9.23;;;;;;;3.59;100.00;94751.53;5002647;28;20030;-69
2022/03/31 03:10:20;;;;;;;19.80;8.73;;;;;;;3.28;100.00;94750.34;5000652;28;20041;-69
2022/03/31 03:12:45;;;;;;;23.48;10.82;;;;;;;3.18;100.00;94743.06;4985614;28;20030;-70
2022/03/31 03:15:11;;;;;;;19.70;9.75;;;;;;;3.37;100.00;94746.22;5001146;28;20036;-69
2022/03/31 03:17:41;;;;;;;13.60;8.02;;;;;;;3.21;100.00;94749.72;5001032;28;20038;-70
2022/03/31 03:20:13;;;;;;;17.98;9.57;;;;;;;3.28;100.00;94755.63;4998547;28;20045;-70
2022/03/31 03:22:41;;;;;;;14.65;8.60;;;;;;;3.18;100.00;94747.53;5001870;28;20111;-71
2022/03/31 03:25:07;;;;;;;18.80;10.15;;;;;;;3.30;100.00;94746.41;5001512;28;20045;-70
2022/03/31 03:27:32;;;;;;;17.60;8.95;;;;;;;3.20;100.00;94750.75;5002230;28;20254;-70
2022/03/31 03:29:58;;;;;;;17.27;10.20;;;;;;;3.28;100.00;94745.84;4997969;28;20385;-69
2022/03/31 03:32:24;;;;;;;17.48;9.35;;;;;;;3.25;100.00;94740.25;4997024;28;20045;-69
2022/03/31 03:34:49;;;;;;;21.08;10.40;;;;;;;3.14;100.00;94731.38;4997243;28;20172;-68
2022/03/31 03:37:15;;;;;;;21.33;10.18;;;;;;;3.29;100.00;94739.53;4993844;28;20037;-69
2022/03/31 03:39:40;;;;;;;20.65;9.70;;;;;;;3.32;100.00;94731.09;4991661;28;20527;-69
2022/03/31 03:42:07;;;;;;;20.80;9.88;;;;;;;3.28;100.00;94740.56;4996080;28;20038;-70
2022/03/31 03:44:34;;;;;;;23.30;10.57;;;;;;;3.31;100.00;94740.06;4995327;28;20041;-70
2022/03/31 03:47:00;;;;;;;19.08;9.88;;;;;;;3.37;100.00;94740.94;4995903;28;20046;-69
2022/03/31 03:49:25;;;;;;;16.98;9.65;;;;;;;3.40;100.00;94745.72;4994352;28;20045;-69
2022/03/31 03:51:50;;;;;;;17.90;10.15;;;;;;;3.52;100.00;94743.00;4997319;28;20042;-69
2022/03/31 03:54:16;;;;;;;19.27;10.10;;;;;;;3.60;100.00;94737.25;4995658;28;20046;-70
2022/03/31 03:56:43;;;;;;;17.35;9.80;;;;;;;3.56;100.00;94739.59;4996157;28;20103;-69
2022/03/31 03:59:09;;;;;;;19.48;10.38;;;;;;;3.24;100.00;94739.44;4992606;28;20038;-71
2022/03/31 04:01:34;;;;;;;18.90;10.05;;;;;;;3.42;100.00;94738.34;4994486;28;20056;-71
2022/03/31 04:03:59;;;;;;;19.25;9.85;;;;;;;3.40;100.00;94737.00;4977417;28;20448;-70
2022/03/31 04:06:25;;;;;;;20.15;9.93;;;;;;;3.41;100.00;94733.31;4979570;28;20381;-69
2022/03/31 04:08:51;;;;;;;21.30;10.05;;;;;;;3.53;100.00;94740.09;4995662;28;20468;-69
2022/03/31 04:11:16;;;;;;;19.23;10.48;;;;;;;3.59;100.00;94727.72;4975643;28;20408;-70
2022/03/31 04:13:42;;;;;;;19.67;10.45;;;;;;;3.67;100.00;94718.56;4994397;28;20988;-70
2022/03/31 04:16:08;;;;;;;21.38;9.77;;;;;;;3.57;100.00;94722.66;4994615;28;20045;-70
2022/03/31 04:18:33;;;;;;;17.23;9.05;;;;;;;3.37;100.00;94727.72;4992427;28;20468;-70
2022/03/31 04:21:02;;;;;;;17.92;8.98;;;;;;;3.39;100.00;94730.91;4996259;28;20537;-69
2022/03/31 04:23:28;;;;;;;22.90;10.07;;;;;;;3.41;100.00;94736.75;4995227;28;20096;-71
2022/03/31 04:25:54;;;;;;;20.25;10.00;;;;;;;3.43;100.00;94737.31;4995372;28;20103;-68
2022/03/31 04:28:20;;;;;;;18.58;9.93;;;;;;;3.50;100.00;94732.66;4993538;28;20735;-69
2022/03/31 04:30:45;;;;;;;21.65;10.32;;;;;;;3.45;100.00;94729.94;5000255;28;20062;-71
2022/03/31 04:33:11;;;;;;;18.80;9.45;;;;;;;3.46;100.00;94733.38;5001812;28;20452;-69
2022/03/31 04:35:36;;;;;;;20.25;10.48;;;;;;;3.59;100.00;94731.19;4998044;28;20095;-70
2022/03/31 04:38:05;;;;;;;18.23;10.52;;;;;;;3.69;100.00;94727.06;4996986;28;20512;-70
2022/03/31 04:40:30;;;;;;;23.38;9.90;;;;;;;3.74;100.00;94729.75;4998280;28;20048;-69
2022/03/31 04:42:56;;;;;;;20.33;10.75;;;;;;;3.57;100.00;94727.16;4999247;28;20501;-69
2022/03/31 04:45:21;;;;;;;20.48;10.52;;;;;;;3.43;100.00;94724.09;4996497;28;20053;-71
2022/03/31 04:47:47;;;;;;;17.80;9.75;;;;;;;3.40;100.00;94724.56;4995825;28;20411;-70
2022/03/31 04:50:14;;;;;;;18.08;9.25;;;;;;;3.40;100.00;94732.50;4998887;28;20152;-69
2022/03/31 04:52:40;;;;;;;19.13;10.13;;;;;;;3.39;100.00;94725.63;4998766;28;20117;-69
2022/03/31 04:55:06;;;;;;;18.35;8.95;;;;;;;3.42;100.00;94727.75;4996508;28;20400;-70
2022/03/31 04:57:34;;;;;;;18.10;9.68;;;;;;;3.37;100.00;94738.31;4997855;28;20461;-70
2022/03/31 04:59:59;;;;;;;19.38;9.35;;;;;;;3.36;100.00;94726.13;4981405;28;20041;-69
2022/03/31 05:02:25;;;;;;;19.75;9.88;;;;;;;3.43;100.00;94723.31;4979602;28;20543;-69
2022/03/31 05:04:50;;;;;;;19.58;9.27;;;;;;;3.51;100.00;94722.88;4999969;28;20399;-69
2022/03/31 05:07:16;;;;;;;22.15;9.20;;;;;;;3.51;100.00;94728.97;4997519;28;20092;-70
2022/03/31 05:09:41;;;;;;;17.73;8.93;;;;;;;3.53;100.00;94729.50;4979925;28;20038;-69
2022/03/31 05:12:08;;;;;;;19.20;9.38;;;;;;;3.49;100.00;94741.63;4979695;28;20030;-70
2022/03/31 05:14:34;;;;;;;17.95;8.60;;;;;;;3.37;100.00;94742.78;4995283;28;20049;-69
2022/03/31 05:17:00;;;;;;;17.90;8.85;;;;;;;3.46;100.00;94738.66;4999421;28;20034;-69
2022/03/31 05:19:26;;;;;;;17.58;8.88;;;;;;;3.39;100.00;94736.19;4997294;28;20071;-70
2022/03/31 05:21:51;;;;;;;15.45;8.20;;;;;;;3.44;100.00;94732.84;5001338;28;20045;-68
2022/03/31 05:24:17;;;;;;;18.60;9.25;;;;;;;3.63;100.00;94737.56;4997177;28;20037;-71
2022/03/31 05:26:42;;;;;;;16.60;8.88;;;;;;;3.73;100.00;94741.38;4995872;28;20033;-70
2022/03/31 05:29:08;;;;;;;16.90;8.50;;;;;;;3.60;100.00;94734.63;4992278;28;20054;-70
2022/03/31 05:31:34;;;;;;;17.30;9.05;;;;;;;3.71;100.00;94738.19;4997937;28;20337;-69
2022/03/31 05:33:59;;;;;;;18.80;8.95;;;;;;;3.71;100.00;94743.47;4998478;28;20042;-68
2022/03/31 05:36:24;;;;;;;20.65;9.73;;;;;;;3.59;100.00;94736.47;4995321;28;20378;-70
2022/03/31 05:38:50;;;;;;;20.45;8.70;;;;;;;3.68;100.00;94736.03;4998190;28;20084;-70
2022/03/31 05:41:15;;;;;;;16.25;8.75;;;;;;;3.62;100.00;94735.97;4995364;28;20168;-68
2022/03/31 05:43:41;;;;;;;17.20;8.85;;;;;;;3.40;100.00;94724.56;4978162;28;20038;-68
2022/03/31 05:46:07;;;;;;;18.65;8.80;;;;;;;3.56;100.00;94733.50;4999426;28;20043;-69
2022/03/31 05:48:33;;;;;;;17.52;9.10;;;;;;;3.67;100.00;94726.50;4983549;28;20033;-70
2022/03/31 05:50:58;;;;;;;18.48;9.82;;;;;;;3.66;100.00;94723.06;4998462;28;20038;-69
2022/03/31 05:53:23;;;;;;;16.52;9.07;;;;;;;3.57;100.00;94721.88;4996809;28;20041;-69
2022/03/31 05:55:49;;;;;;;22.42;9.32;;;;;;;3.51;100.00;94726.31;4996820;28;20592;-69
2022/03/31 05:58:15;;;;;;;19.58;9.27;;;;;;;3.63;100.00;94715.59;4993562;28;20183;-71
2022/03/31 06:00:41;;;;;;;16.90;8.55;;;;;;;3.57;100.00;94717.38;5002974;28;20479;-70
2022/03/31 06:03:06;;;;;;;22.83;10.77;;;;;;;3.67;100.00;94723.84;4984343;28;20475;-70
2022/03/31 06:05:32;;;;;;;19.95;8.73;;;;;;;3.71;100.00;94727.59;5001977;28;20045;-69
2022/03/31 06:07:58;;;;;;;18.92;9.65;;;;;;;3.74;100.00;94724.47;5001014;28;20034;-69
2022/03/31 06:10:24;;;;;;;19.60;9.35;;;;;;;3.90;100.00;94734.97;4997826;28;20073;-69
2022/03/31 06:12:50;;;;;;;18.98;9.32;;;;;;;3.86;100.00;94728.56;5001481;28;20497;-70
2022/03/31 06:15:16;;;;;;;17.40;8.93;;;;;;;3.92;100.00;94737.38;5000319;28;20042;-69
2022/03/31 06:17:43;;;;;;;15.90;8.20;;;;;;;3.87;100.00;94732.81;5001857;28;20062;-69
2022/03/31 06:20:11;;;;;;;17.38;8.90;;;;;;;4.04;100.00;94743.31;5000560;28;20038;-69
2022/03/31 06:22:37;;;;;;;16.67;8.63;;;;;;;3.84;100.00;94735.97;4999974;28;20048;-69
2022/03/31 06:25:04;;;;;;;16.45;8.60;;;;;;;4.12;100.00;94734.91;5001437;28;20045;-70
2022/03/31 06:27:29;;;;;;;20.85;8.90;;;;;;;4.04;100.00;94724.78;4998914;28;20060;-69
2022/03/31 06:29:55;;;;;;;19.13;8.82;;;;;;;4.26;100.00;94727.38;5001594;28;20037;-71
2022/03/31 06:32:21;;;;;;;20.65;8.55;;;;;;;3.99;100.00;94737.97;4998598;28;20685;-68
2022/03/31 06:34:46;;;;;;;25.60;9.52;;;;;;;3.83;100.00;94741.50;5000245;28;20056;-70
2022/03/31 06:37:13;;;;;;;18.38;8.45;;;;;;;3.73;100.00;94728.94;5000444;28;20038;-69
2022/03/31 06:39:39;;;;;;;20.67;9.77;;;;;;;3.94;100.00;94732.63;4999555;28;20381;-69
2022/03/31 06:42:04;;;;;;;22.77;8.95;;;;;;;3.82;100.00;94727.47;5000331;28;20100;-70
2022/03/31 06:44:31;;;;;;;22.02;10.20;;;;;;;4.12;100.00;94737.56;5000191;28;20039;-69
2022/03/31 06:46:57;;;;;;;18.83;9.63;;;;;;;4.05;100.00;94733.53;4998615;28;20044;-68
2022/03/31 06:49:23;;;;;;;19.67;10.27;;;;;;;4.21;100.00;94732.63;5000177;28;20440;-69
2022/03/31 06:51:50;;;;;;;15.20;8.18;;;;;;;4.13;100.00;94730.44;5002760;28;20358;-69
2022/03/31 06:54:18;;;;;;;19.77;10.07;;;;;;;3.94;100.00;94737.91;5004785;28;20046;-68
2022/03/31 06:56:44;;;;;;;19.45;9.85;;;;;;;4.06;100.00;94733.28;5004033;28;20034;-70
2022/03/31 06:59:10;;;;;;;18.88;8.45;;;;;;;3.75;100.00;94721.56;5002072;28;20030;-70
2022/03/31 07:01:35;;;;;;;20.10;10.45;;;;;;;3.76;100.00;94730.31;4999591;28;20139;-69
2022/03/31 07:04:01;;;;;;;19.90;10.50;;;;;;;3.83;100.00;94722.97;5001897;28;20046;-68
2022/03/31 07:06:26;;;;;;;22.77;10.85;;;;;;;3.69;100.00;94719.09;4986496;28;20041;-70
2022/03/31 07:08:52;;;;;;;20.27;10.82;;;;;;;3.94;100.00;94729.97;5000513;28;20070;-69
2022/03/31 07:11:17;;;;;;;19.95;10.15;;;;;;;3.97;100.00;94718.91;5001525;28;20034;-69
2022/03/31 07:13:43;;;;;;;21.20;11.60;;;;;;;3.88;100.00;94725.66;5002339;28;20072;-69
2022/03/31 07:16:11;;;;;;;20.48;11.20;;;;;;;3.88;100.00;94723.00;4999349;28;20136;-69
2022/03/31 07:18:37;;;;;;;22.00;11.27;;;;;;;4.01;100.00;94732.41;5001660;28;20555;-69
2022/03/31 07:21:03;;;;;;;23.00;11.55;;;;;;;3.73;100.00;94730.78;5004055;28;20443;-69
2022/03/31 07:23:28;;;;;;;20.85;11.38;;;;;;;3.68;100.00;94722.81;4999072;28;20566;-69
2022/03/31 07:25:57;;;;;;;27.33;11.70;;;;;;;3.67;100.00;94726.50;5001751;28;20462;-70
2022/03/31 07:28:24;;;;;;;24.15;11.13;;;;;;;3.81;100.00;94727.69;5000101;28;20108;-68
2022/03/31 07:30:50;;;;;;;22.85;11.55;;;;;;;3.85;100.00;94728.81;5001457;28;20500;-69
2022/03/31 07:33:18;;;;;;;19.20;11.38;;;;;;;3.80;100.00;94734.03;4998021;28;20053;-69
2022/03/31 07:35:44;;;;;;;25.83;11.27;;;;;;;3.89;100.00;94732.53;4997008;28;20045;-70
2022/03/31 07:38:11;;;;;;;24.30;9.35;;;;;;;3.73;100.00;94723.66;5000409;28;20498;-68
2022/03/31 07:40:39;;;;;;;18.48;9.88;;;;;;;3.55;100.00;94732.69;4999541;28;20037;-69
2022/03/31 07:43:05;;;;;;;20.50;10.98;;;;;;;3.57;100.00;94727.97;4998056;28;20550;-70
2022/03/31 07:45:34;;;;;;;22.92;11.82;;;;;;;3.82;100.00;94724.03;5000553;28;20049;-69
2022/03/31 07:48:01;;;;;;;19.48;10.63;;;;;;;3.95;100.00;94730.75;4998881;28;20069;-69
2022/03/31 07:50:27;;;;;;;23.65;8.18;;;;;;;3.86;100.00;94722.47;4991335;28;20540;-69
2022/03/31 07:52:52;;;;;;;22.05;11.05;;;;;;;3.86;100.00;94719.81;5003241;28;20037;-69
2022/03/31 07:55:22;;;;;;;18.52;11.45;;;;;;;4.09;100.00;94718.75;5000662;28;20044;-68
2022/03/31 07:57:48;;;;;;;15.32;9.07;;;;;;;4.01;100.00;94727.13;5001651;28;20068;-69
2022/03/31 08:00:15;;;;;;;21.23;10.85;;;;;;;4.17;100.00;94713.78;4998125;28;20030;-70
2022/03/31 08:02:43;;;;;;;21.45;10.93;;;;;;;4.06;100.00;94716.59;5004638;28;20789;-70
2022/03/31 08:05:09;;;;;;;17.95;10.48;;;;;;;4.16;100.00;94716.69;4999691;28;20030;-69
2022/03/31 08:07:36;;;;;;;19.90;10.73;;;;;;;4.37;100.00;94709.75;5000147;28;20557;-69
2022/03/31 08:10:03;;;;;;;18.40;9.90;;;;;;;4.22;100.00;94709.59;4999457;28;20080;-69
2022/03/31 08:12:29;;;;;;;17.85;9.85;;;;;;;4.28;100.00;94708.59;5001820;28;20507;-69
2022/03/31 08:14:54;;;;;;;20.90;10.18;;;;;;;4.51;100.00;94696.88;5002860;28;20627;-68
2022/03/31 08:17:20;;;;;;;21.33;10.40;;;;;;;4.57;100.00;94703.81;4999215;28;20047;-68
2022/03/31 08:19:45;;;;;;;18.92;10.30;;;;;;;4.48;100.00;94703.47;4986538;28;20049;-69
2022/03/31 08:22:11;;;;;;;18.92;10.38;;;;;;;4.40;100.00;94699.44;4996149;28;20037;-69
2022/03/31 08:24:37;;;;;;;23.20;11.75;;;;;;;4.69;100.00;94699.94;5000668;28;20540;-68
2022/03/31 08:27:04;;;;;;;17.40;9.77;;;;;;;4.68;100.00;94706.28;4999385;28;20088;-68
2022/03/31 08:29:30;;;;;;;18.63;9.70;;;;;;;4.69;100.00;94699.13;4998118;28;20034;-70
2022/03/31 08:32:01;;;;;;;20.95;10.38;;;;;;;4.69;100.00;94707.09;4999028;28;20030;-69
2022/03/31 08:34:27;;;;;;;21.73;11.73;;;;;;;4.77;100.00;94708.47;4985896;28;20053;-68
2022/03/31 08:36:52;;;;;;;20.75;10.88;;;;;;;4.66;100.00;94703.06;4998335;28;20046;-69
2022/03/31 08:39:18;;;;;;;20.45;11.25;;;;;;;4.47;100.00;94713.28;4966820;28;20362;-69
2022/03/31 08:41:44;;;;;;;20.80;10.23;;;;;;;4.54;100.00;94714.91;5001616;28;20037;-71
2022/03/31 08:44:18;;;;;;;20.75;10.48;;;;;;;4.69;100.00;94720.34;4997062;28;20042;-69
2022/03/31 08:46:44;;;;;;;20.08;11.10;;;;;;;4.87;100.00;94713.84;4999217;28;20100;-69
2022/03/31 08:49:12;;;;;;;22.52;11.13;;;;;;;4.90;100.00;94714.16;4997641;28;20030;-68
2022/03/31 08:51:38;;;;;;;20.50;10.60;;;;;;;4.68;100.00;94718.75;4985211;28;20152;-69
2022/03/31 08:54:05;;;;;;;21.30;10.35;;;;;;;4.73;100.00;94721.41;4998413;28;20473;-70
2022/03/31 08:56:31;;;;;;;24.58;11.25;;;;;;;4.61;100.00;94726.91;4998723;28;20038;-68
2022/03/31 08:58:56;;;;;;;19.08;11.07;;;;;;;4.82;100.00;94719.88;4984005;28;20393;-70
2022/03/31 09:01:22;;;;;;;21.80;11.43;;;;;;;4.71;100.00;94724.31;4997163;28;20053;-69
2022/03/31 09:03:48;;;;;;;19.98;10.88;;;;;;;4.73;100.00;94729.38;4999194;28;20037;-69
2022/03/31 09:06:25;;;;;;;19.35;10.00;;;;;;;4.83;100.00;94718.84;4999109;28;20779;-70
2022/03/31 09:09:02;;;;;;;19.65;11.48;;;;;;;5.07;100.00;94718.47;4998330;28;20041;-69
2022/03/31 09:11:33;;;;;;;25.90;11.25;;;;;;;5.21;100.00;94715.13;4998801;28;20042;-69
2022/03/31 09:14:02;;;;;;;21.35;10.95;;;;;;;5.23;100.00;94722.81;4999874;28;20030;-69
2022/03/31 09:16:38;;;;;;;17.00;9.75;;;;;;;5.32;100.00;94710.66;4999157;28;20042;-68
2022/03/31 09:19:15;;;;;;;13.35;7.18;;;;;;;5.32;100.00;94715.97;4997335;28;20046;-69
2022/03/31 09:21:57;;;;;;;23.45;11.10;;;;;;;5.12;100.00;94718.50;4986022;28;20113;-70
2022/03/31 09:24:24;;;;;;;23.15;10.60;;;;;;;5.46;100.00;94718.97;4996277;28;20124;-70
2022/03/31 09:26:50;;;;;;;18.95;11.02;;;;;;;5.37;100.00;94723.97;4997908;28;20089;-69
2022/03/31 09:29:19;;;;;;;21.80;10.63;;;;;;;5.67;100.00;94719.84;4994284;28;20077;-69
2022/03/31 09:31:46;;;;;;;16.42;8.27;;;;;;;5.69;100.00;94715.88;4997225;28;20100;-70
2022/03/31 09:34:13;;;;;;;19.83;9.98;;;;;;;5.51;100.00;94714.47;4991247;28;20104;-70
2022/03/31 09:36:52;;;;;;;20.58;11.00;;;;;;;5.22;100.00;94721.22;4994118;28;20038;-69
2022/03/31 09:39:19;;;;;;;20.45;10.18;;;;;;;5.18;100.00;94720.13;4991459;28;20062;-70
2022/03/31 09:41:47;;;;;;;19.08;11.07;;;;;;;5.44;100.00;94719.19;4993972;28;20038;-69
2022/03/31 09:44:16;;;;;;;23.98;12.88;;;;;;;5.40;100.00;94714.69;4980033;28;20104;-69
2022/03/31 09:46:43;;;;;;;20.73;10.73;;;;;;;5.25;100.00;94726.81;4992337;28;20254;-70
2022/03/31 09:49:14;;;;;;;21.75;10.32;;;;;;;5.55;100.00;94730.69;4996800;28;20053;-69
2022/03/31 09:51:42;;;;;;;21.38;11.02;;;;;;;5.60;100.00;94722.72;4997312;28;20481;-70
2022/03/31 09:54:08;;;;;;;21.30;10.65;;;;;;;5.92;100.00;94730.59;4994539;28;20030;-70
2022/03/31 09:56:35;;;;;;;18.13;10.55;;;;;;;5.93;100.00;94716.25;4994613;28;20053;-69
2022/03/31 09:59:06;;;;;;;21.40;11.25;;;;;;;6.16;100.00;94725.63;4994316;28;20550;-70
2022/03/31 10:01:32;;;;;;;16.83;9.00;;;;;;;6.09;100.00;94730.38;4994722;28;20553;-69
2022/03/31 10:03:58;;;;;;;17.08;9.63;;;;;;;6.19;100.00;94733.03;4993085;28;20042;-69
2022/03/31 10:06:25;;;;;;;15.88;9.00;;;;;;;5.84;100.00;94717.78;4991523;28;20038;-70
2022/03/31 10:08:51;;;;;;;21.67;10.50;;;;;;;6.22;100.00;94713.13;4994867;28;20050;-69
2022/03/31 10:11:22;;;;;;;20.90;10.35;;;;;;;6.57;100.00;94720.34;4993051;28;20077;-69
2022/03/31 10:13:57;;;;;;;21.95;11.18;;;;;;;7.03;100.00;94723.78;4995959;28;20045;-69
2022/03/31 10:16:47;;;;;;;21.55;10.55;;;;;;;7.40;100.00;94712.81;4993576;28;20038;-70
2022/03/31 10:19:40;;;;;;;21.65;10.70;;;;;;;7.30;100.00;94704.84;4995668;28;20108;-70
2022/03/31 10:25:06;;;;;;;18.90;10.05;;;;;;;8.28;100.00;94708.72;4993222;28;20046;-70
2022/03/31 10:27:33;;;;;;;22.88;10.70;;;;;;;8.28;100.00;94698.84;4993679;28;20050;-70
2022/03/31 10:30:16;;;;;;;20.17;9.83;;;;;;;8.64;100.00;94704.75;4304502;28;9999962;-69
2022/03/31 10:33:01;;;;;;;21.30;9.65;;;;;;;8.35;100.00;94698.56;4997306;28;21050;-70
2022/03/31 10:35:33;;;;;;;21.85;10.48;;;;;;;8.93;100.00;94693.31;4997975;28;20054;-69
2022/03/31 10:38:12;;;;;;;18.95;9.70;;;;;;;9.06;100.00;94686.53;4996681;28;20329;-70
2022/03/31 10:40:42;;;;;;;18.17;9.65;;;;;;;9.32;100.00;94692.41;4995616;28;20042;-69
2022/03/31 10:43:18;;;;;;;16.98;9.52;;;;;;;9.15;99.10;94677.63;4997561;28;20116;-69
2022/03/31 10:45:44;;;;;;;20.73;10.52;;;;;;;9.61;98.93;94679.81;5001786;28;20057;-69
2022/03/31 10:48:21;;;;;;;19.80;9.68;;;;;;;10.49;93.51;94678.38;4998080;28;20488;-70
2022/03/31 10:51:14;;;;;;;18.17;9.75;;;;;;;10.90;87.47;94674.31;4965113;28;20480;-70
2022/03/31 10:53:44;;;;;;;18.35;9.13;;;;;;;10.32;94.24;94673.56;5001147;28;20578;-69
2022/03/31 10:56:24;;;;;;;15.38;8.70;;;;;;;10.60;91.52;94677.16;4999097;28;20491;-69
2022/03/31 10:58:52;;;;;;;17.13;9.98;;;;;;;10.47;94.27;94667.19;4998069;28;20054;-70
2022/03/31 11:01:19;;;;;;;19.45;9.10;;;;;;;9.93;96.44;94676.47;4999337;28;20385;-70
2022/03/31 11:03:47;;;;;;;20.90;9.90;;;;;;;10.56;95.43;94673.47;4998708;28;20820;-71
2022/03/31 11:06:13;;;;;;;17.75;9.57;;;;;;;11.08;86.64;94673.44;5001392;28;20038;-69
2022/03/31 11:08:49;;;;;;;20.27;9.27;;;;;;;10.04;88.50;94675.28;5000155;28;20079;-70
2022/03/31 11:11:21;;;;;;;15.30;8.88;;;;;;;8.86;100.00;94663.50;4997820;28;20080;-70
2022/03/31 11:13:48;;;;;;;17.88;9.75;;;;;;;9.65;97.97;94667.50;5001499;28;20530;-69
2022/03/31 11:16:17;;;;;;;17.02;10.45;;;;;;;9.32;95.97;94665.72;4997891;28;20026;-69
2022/03/31 11:18:53;;;;;;;18.40;10.48;;;;;;;8.72;100.00;94658.03;4997376;28;20053;-69
2022/03/31 11:21:19;;;;;;;18.45;10.30;;;;;;;8.71;100.00;94666.28;5000445;28;20034;-70
2022/03/31 11:23:48;;;;;;;16.42;9.18;;;;;;;8.79;100.00;94663.03;4999227;28;20464;-69
2022/03/31 11:26:32;;;;;;;19.67;10.05;;;;;;;8.50;100.00;94666.47;4993443;28;20064;-69
2022/03/31 11:28:59;;;;;;;16.05;9.18;;;;;;;8.06;100.00;94661.16;4996772;28;20351;-70